createdAt,value
2023-08-26T00:03:30.633Z,20.10
2023-08-26T00:08:32.181Z,20.18
2023-08-26T00:13:33.713Z,20.11
2023-08-26T00:18:35.238Z,19.96
2023-08-26T00:23:36.754Z,19.89
2023-08-26T00:28:38.356Z,20.18
2023-08-26T00:33:41.306Z,20.20
2023-08-26T00:38:43.878Z,20.19
2023-08-26T00:43:45.984Z,20.22
2023-08-26T00:48:47.776Z,20.21
2023-08-26T00:53:50.105Z,20.21
2023-08-26T00:58:52.170Z,20.25
2023-08-26T01:03:54.405Z,20.20
2023-08-26T01:08:56.817Z,20.15
2023-08-26T01:14:23.161Z,20.14
2023-08-26T01:19:41.662Z,20.07
2023-08-26T01:24:43.694Z,20.01
2023-08-26T01:29:45.392Z,19.94
2023-08-26T01:34:53.775Z,19.87
2023-08-26T01:39:58.980Z,19.83
2023-08-26T01:45:00.936Z,19.70
2023-08-26T01:50:02.537Z,19.59
2023-08-26T01:55:04.508Z,19.40
2023-08-26T02:00:06.721Z,19.13
2023-08-26T02:05:16.674Z,18.85
2023-08-26T02:10:18.225Z,18.63
2023-08-26T02:15:19.764Z,18.43
2023-08-26T02:20:21.372Z,18.35
2023-08-26T02:25:22.975Z,18.04
2023-08-26T02:30:25.617Z,17.94
2023-08-26T02:35:27.474Z,17.92
2023-08-26T02:40:29.057Z,17.83
2023-08-26T02:45:32.397Z,17.67
2023-08-26T02:50:34.051Z,17.59
2023-08-26T02:55:35.636Z,17.53
2023-08-26T03:00:37.248Z,17.42
2023-08-26T03:05:38.773Z,17.33
2023-08-26T03:10:40.806Z,17.13
2023-08-26T03:15:42.443Z,17.01
2023-08-26T03:20:44.035Z,16.92
2023-08-26T03:25:45.569Z,16.75
2023-08-26T03:30:47.433Z,16.72
2023-08-26T03:35:48.975Z,16.72
2023-08-26T03:40:50.503Z,16.57
2023-08-26T03:45:52.146Z,16.49
2023-08-26T03:50:55.061Z,16.37
2023-08-26T03:55:56.876Z,16.55
2023-08-26T04:01:04.408Z,16.53
2023-08-26T04:06:05.985Z,16.61
2023-08-26T04:11:07.599Z,16.52
2023-08-26T04:16:09.955Z,16.40
2023-08-26T04:21:11.631Z,16.21
2023-08-26T04:26:13.207Z,15.97
2023-08-26T04:31:15.677Z,15.76
2023-08-26T04:36:17.291Z,15.19
2023-08-26T04:41:18.925Z,14.86
2023-08-26T04:46:21.374Z,14.75
2023-08-26T04:51:23.663Z,14.73
2023-08-26T04:56:25.224Z,14.58
2023-08-26T05:01:27.688Z,14.65
2023-08-26T05:06:29.278Z,14.87
2023-08-26T05:11:30.840Z,15.11
2023-08-26T05:16:32.474Z,15.64
2023-08-26T05:21:34.086Z,16.20
2023-08-26T05:26:35.721Z,16.54
2023-08-26T05:31:37.584Z,16.90
2023-08-26T05:36:39.160Z,17.06
2023-08-26T05:41:40.708Z,17.14
2023-08-26T05:46:42.341Z,17.31
2023-08-26T05:51:44.145Z,17.79
2023-08-26T05:56:45.756Z,17.95
2023-08-26T06:01:47.429Z,17.78
2023-08-26T06:06:49.071Z,18.36
2023-08-26T06:11:50.644Z,18.42
2023-08-26T06:16:52.239Z,18.46
2023-08-26T06:21:53.766Z,18.53
2023-08-26T06:26:55.370Z,18.89
2023-08-26T06:31:57.025Z,19.26
2023-08-26T06:37:05.286Z,19.51
2023-08-26T06:42:07.506Z,19.81
2023-08-26T06:47:16.542Z,20.07
2023-08-26T06:52:18.180Z,19.96
2023-08-26T06:57:19.716Z,20.37
2023-08-26T07:02:21.249Z,20.88
2023-08-26T07:07:22.767Z,21.19
2023-08-26T07:12:24.321Z,21.70
2023-08-26T07:17:25.883Z,21.54
2023-08-26T07:22:29.548Z,22.13
2023-08-26T07:27:31.370Z,22.02
2023-08-26T07:32:32.966Z,21.99
2023-08-26T07:37:34.534Z,21.89
2023-08-26T07:42:36.364Z,23.26
2023-08-26T07:52:42.574Z,22.39
2023-08-26T07:57:44.115Z,22.19
2023-08-26T08:02:45.720Z,22.12
2023-08-26T08:07:47.291Z,21.90
2023-08-26T08:12:48.847Z,22.86
2023-08-26T08:17:50.480Z,23.07
2023-08-26T08:22:52.094Z,22.84
2023-08-26T08:27:54.109Z,23.15
2023-08-26T08:32:55.903Z,23.62
2023-08-26T08:37:57.787Z,24.35
2023-08-26T08:43:02.706Z,23.66
2023-08-26T08:48:04.558Z,23.87
2023-08-26T08:53:06.850Z,25.14
2023-08-26T08:58:09.900Z,24.70
2023-08-26T09:03:11.677Z,24.70
2023-08-26T09:08:15.241Z,25.60
2023-08-26T09:13:16.802Z,24.89
2023-08-26T09:18:18.373Z,25.39
2023-08-26T09:23:20.014Z,25.83
2023-08-26T09:28:22.145Z,26.07
2023-08-26T09:33:23.680Z,25.11
2023-08-26T09:38:25.975Z,25.58
2023-08-26T09:43:27.579Z,24.64
2023-08-26T09:48:29.181Z,25.66
2023-08-26T09:53:32.242Z,26.58
2023-08-26T09:58:33.810Z,26.07
2023-08-26T10:03:38.923Z,26.50
2023-08-26T10:08:43.321Z,25.83
2023-08-26T10:13:46.633Z,27.33
2023-08-26T10:18:52.361Z,27.69
2023-08-26T10:23:54.635Z,27.65
2023-08-26T10:28:57.268Z,28.02
2023-08-26T10:34:01.642Z,26.52
2023-08-26T10:39:03.988Z,25.08
2023-08-26T10:44:05.797Z,26.85
2023-08-26T10:49:07.347Z,26.58
2023-08-26T10:54:08.888Z,27.10
2023-08-26T10:59:10.479Z,28.49
2023-08-26T11:04:12.262Z,29.65
2023-08-26T11:09:19.981Z,30.29
2023-08-26T11:14:30.952Z,29.61
2023-08-26T11:19:33.592Z,27.88
2023-08-26T11:24:35.150Z,27.47
2023-08-26T11:29:39.349Z,26.46
2023-08-26T11:34:41.025Z,26.11
2023-08-26T11:39:42.716Z,27.05
2023-08-26T11:44:47.323Z,28.69
2023-08-26T11:49:48.903Z,28.27
2023-08-26T11:54:53.558Z,28.95
2023-08-26T12:00:06.417Z,29.30
2023-08-26T12:05:14.871Z,28.94
2023-08-26T12:10:18.327Z,28.18
2023-08-26T12:15:20.100Z,26.69
2023-08-26T12:20:21.580Z,25.54
2023-08-26T12:25:30.251Z,25.70
2023-08-26T12:30:31.951Z,25.69
2023-08-26T12:35:37.533Z,27.38
2023-08-26T12:40:40.388Z,25.83
2023-08-26T12:45:42.054Z,25.51
2023-08-26T12:50:43.952Z,26.22
2023-08-26T12:55:45.814Z,26.37
2023-08-26T13:00:47.449Z,25.22
2023-08-26T13:05:49.097Z,25.70
2023-08-26T13:10:51.575Z,28.59
2023-08-26T13:15:53.448Z,29.81
2023-08-26T13:20:55.058Z,27.13
2023-08-26T13:25:56.587Z,26.25
2023-08-26T13:30:58.221Z,27.63
2023-08-26T13:35:59.802Z,29.64
2023-08-26T13:41:01.373Z,29.39
2023-08-26T13:46:02.928Z,29.81
2023-08-26T13:51:04.462Z,29.09
2023-08-26T13:56:06.220Z,29.50
2023-08-26T14:01:07.771Z,29.27
2023-08-26T14:06:09.470Z,28.00
2023-08-26T14:11:11.016Z,26.96
2023-08-26T14:16:12.652Z,28.08
2023-08-26T14:21:14.235Z,27.72
2023-08-26T14:26:15.889Z,26.96
2023-08-26T14:31:17.467Z,26.53
2023-08-26T14:36:19.119Z,26.74
2023-08-26T14:41:20.662Z,26.10
2023-08-26T14:46:22.350Z,26.44
2023-08-26T14:51:26.452Z,26.81
2023-08-26T14:56:28.021Z,28.24
2023-08-26T15:01:29.660Z,28.79
2023-08-26T15:06:31.297Z,27.65
2023-08-26T15:11:32.929Z,26.54
2023-08-26T15:16:34.751Z,26.43
2023-08-26T15:21:36.367Z,26.24
2023-08-26T15:26:37.950Z,26.24
2023-08-26T15:31:39.504Z,26.32
2023-08-26T15:36:41.177Z,26.40
2023-08-26T15:41:42.754Z,26.15
2023-08-26T15:46:44.337Z,26.21
2023-08-26T15:51:46.086Z,25.85
2023-08-26T15:56:47.606Z,26.01
2023-08-26T16:01:49.134Z,26.81
2023-08-26T16:06:50.721Z,28.63
2023-08-26T16:11:55.841Z,28.55
2023-08-26T16:16:57.338Z,27.26
2023-08-26T16:21:58.886Z,27.50
2023-08-26T16:27:00.505Z,27.40
2023-08-26T16:32:02.045Z,27.71
2023-08-26T16:37:04.165Z,26.96
2023-08-26T16:42:05.712Z,27.31
2023-08-26T16:47:07.314Z,26.37
2023-08-26T16:52:08.908Z,25.74
2023-08-26T16:57:10.474Z,25.08
2023-08-26T17:02:14.819Z,25.86
2023-08-26T17:07:16.400Z,25.88
2023-08-26T17:12:17.980Z,25.35
2023-08-26T17:17:21.116Z,24.64
2023-08-26T17:22:22.787Z,24.26
2023-08-26T17:27:24.371Z,24.08
2023-08-26T17:32:26.042Z,24.01
2023-08-26T17:37:28.344Z,23.95
2023-08-26T17:42:29.955Z,24.05
2023-08-26T17:47:31.566Z,23.96
2023-08-26T17:52:33.178Z,23.77
2023-08-26T17:57:34.730Z,23.55
2023-08-26T18:02:36.370Z,23.47
2023-08-26T18:07:37.925Z,23.42
2023-08-26T18:12:39.530Z,23.27
2023-08-26T18:17:41.103Z,23.07
2023-08-26T18:22:42.975Z,22.95
2023-08-26T18:27:44.703Z,22.75
2023-08-26T18:32:46.487Z,22.58
2023-08-26T18:37:48.111Z,22.36
2023-08-26T18:42:49.652Z,22.07
2023-08-26T18:47:51.233Z,21.76
2023-08-26T18:52:52.871Z,21.69
2023-08-26T18:57:54.407Z,21.48
2023-08-26T19:02:56.092Z,21.35
2023-08-26T19:07:57.819Z,21.18
2023-08-26T19:12:59.594Z,21.14
2023-08-26T19:18:01.419Z,21.19
2023-08-26T19:23:03.462Z,21.34
2023-08-26T19:28:05.349Z,21.34
2023-08-26T19:33:07.997Z,21.07
2023-08-26T19:38:09.842Z,20.64
2023-08-26T19:43:11.562Z,20.35
2023-08-26T19:48:14.232Z,20.14
2023-08-26T19:53:15.900Z,19.67
2023-08-26T19:58:17.436Z,19.35
2023-08-26T20:03:19.095Z,19.82
2023-08-26T20:08:20.749Z,20.21
2023-08-26T20:13:22.334Z,20.48
2023-08-26T20:18:23.863Z,20.51
2023-08-26T20:23:26.369Z,20.23
2023-08-26T20:28:28.646Z,20.01
2023-08-26T20:33:31.242Z,19.58
2023-08-26T20:38:33.446Z,19.34
2023-08-26T20:43:35.090Z,19.24
2023-08-26T20:48:36.667Z,19.22
2023-08-26T20:53:38.232Z,19.31
2023-08-26T20:58:39.847Z,19.46
2023-08-26T21:03:41.425Z,19.27
2023-08-26T21:08:43.345Z,19.14
2023-08-26T21:13:44.937Z,18.82
2023-08-26T21:18:46.580Z,18.55
2023-08-26T21:23:49.235Z,18.30
2023-08-26T21:28:50.947Z,18.08
2023-08-26T21:33:52.548Z,17.98
2023-08-26T21:38:54.132Z,17.91
2023-08-26T21:43:55.710Z,17.92
2023-08-26T21:48:58.640Z,18.01
2023-08-26T21:54:00.196Z,17.99
2023-08-26T21:59:01.766Z,17.91
2023-08-26T22:04:03.612Z,17.70
2023-08-26T22:09:05.245Z,17.52
2023-08-26T22:14:06.787Z,17.43
2023-08-26T22:19:08.366Z,17.46
2023-08-26T22:24:10.010Z,17.17
2023-08-26T22:29:11.632Z,16.95
2023-08-26T22:34:13.248Z,16.85
2023-08-26T22:39:19.918Z,16.82
2023-08-26T22:44:22.080Z,16.85
2023-08-26T22:49:23.589Z,16.90
2023-08-26T22:54:25.242Z,16.97
2023-08-26T22:59:26.776Z,17.20
2023-08-26T23:04:28.353Z,17.41
2023-08-26T23:09:29.958Z,17.23
2023-08-26T23:14:31.510Z,17.05
2023-08-26T23:19:33.046Z,16.59
2023-08-26T23:24:34.640Z,16.67
2023-08-26T23:29:36.308Z,16.61
2023-08-26T23:34:37.888Z,16.91
2023-08-26T23:39:39.473Z,17.20
2023-08-26T23:44:41.173Z,17.28
2023-08-26T23:49:42.869Z,17.26
2023-08-26T23:54:44.419Z,17.26
2023-08-26T23:59:45.956Z,17.12
